sensor_id;sensor_type;location;lat;lon;timestamp;temperature;humidity
19220;DHT22;9744;49.364;7.484;2023-07-09T00:00:18;25.00;92.90
19220;DHT22;9744;49.364;7.484;2023-07-09T00:02:48;25.10;92.70
19220;DHT22;9744;49.364;7.484;2023-07-09T00:05:17;25.10;92.70
19220;DHT22;9744;49.364;7.484;2023-07-09T00:07:44;25.20;92.80
19220;DHT22;9744;49.364;7.484;2023-07-09T00:10:17;25.20;92.80
19220;DHT22;9744;49.364;7.484;2023-07-09T00:12:44;25.10;92.80
19220;DHT22;9744;49.364;7.484;2023-07-09T00:15:12;25.00;93.20
19220;DHT22;9744;49.364;7.484;2023-07-09T00:17:42;25.00;93.20
19220;DHT22;9744;49.364;7.484;2023-07-09T00:20:13;24.90;93.50
19220;DHT22;9744;49.364;7.484;2023-07-09T00:22:42;24.90;93.40
19220;DHT22;9744;49.364;7.484;2023-07-09T00:25:14;24.80;93.50
19220;DHT22;9744;49.364;7.484;2023-07-09T00:27:42;24.80;93.70
19220;DHT22;9744;49.364;7.484;2023-07-09T00:30:16;24.80;93.70
19220;DHT22;9744;49.364;7.484;2023-07-09T00:32:44;24.70;93.70
19220;DHT22;9744;49.364;7.484;2023-07-09T00:35:13;24.70;93.70
19220;DHT22;9744;49.364;7.484;2023-07-09T00:37:42;24.70;93.90
19220;DHT22;9744;49.364;7.484;2023-07-09T00:40:14;24.60;93.90
19220;DHT22;9744;49.364;7.484;2023-07-09T00:42:49;24.60;94.00
19220;DHT22;9744;49.364;7.484;2023-07-09T00:45:21;24.80;94.20
19220;DHT22;9744;49.364;7.484;2023-07-09T00:47:53;24.50;94.10
19220;DHT22;9744;49.364;7.484;2023-07-09T00:50:33;24.50;94.60
19220;DHT22;9744;49.364;7.484;2023-07-09T00:53:04;24.40;94.40
19220;DHT22;9744;49.364;7.484;2023-07-09T00:55:38;24.40;94.60
19220;DHT22;9744;49.364;7.484;2023-07-09T00:58:13;24.40;94.60
19220;DHT22;9744;49.364;7.484;2023-07-09T01:00:46;24.40;94.50
19220;DHT22;9744;49.364;7.484;2023-07-09T01:03:21;24.40;94.60
19220;DHT22;9744;49.364;7.484;2023-07-09T01:05:50;24.30;94.70
19220;DHT22;9744;49.364;7.484;2023-07-09T01:08:21;24.20;94.80
19220;DHT22;9744;49.364;7.484;2023-07-09T01:10:48;24.00;94.90
19220;DHT22;9744;49.364;7.484;2023-07-09T01:13:16;24.00;95.00
19220;DHT22;9744;49.364;7.484;2023-07-09T01:15:46;23.90;95.20
19220;DHT22;9744;49.364;7.484;2023-07-09T01:18:14;23.90;95.30
19220;DHT22;9744;49.364;7.484;2023-07-09T01:20:42;23.80;95.30
19220;DHT22;9744;49.364;7.484;2023-07-09T01:23:10;23.80;95.30
19220;DHT22;9744;49.364;7.484;2023-07-09T01:25:45;23.90;95.30
19220;DHT22;9744;49.364;7.484;2023-07-09T01:28:19;23.80;95.40
19220;DHT22;9744;49.364;7.484;2023-07-09T01:30:48;23.80;95.40
19220;DHT22;9744;49.364;7.484;2023-07-09T01:33:21;23.80;95.50
19220;DHT22;9744;49.364;7.484;2023-07-09T01:35:50;23.60;95.70
19220;DHT22;9744;49.364;7.484;2023-07-09T01:38:22;23.60;95.80
19220;DHT22;9744;49.364;7.484;2023-07-09T01:40:50;23.70;95.70
19220;DHT22;9744;49.364;7.484;2023-07-09T01:43:17;23.70;95.80
19220;DHT22;9744;49.364;7.484;2023-07-09T01:45:45;23.70;95.80
19220;DHT22;9744;49.364;7.484;2023-07-09T01:48:15;23.60;95.90
19220;DHT22;9744;49.364;7.484;2023-07-09T01:50:43;23.60;96.00
19220;DHT22;9744;49.364;7.484;2023-07-09T01:53:13;23.60;96.10
19220;DHT22;9744;49.364;7.484;2023-07-09T01:55:44;23.50;96.20
19220;DHT22;9744;49.364;7.484;2023-07-09T01:58:11;23.50;96.30
19220;DHT22;9744;49.364;7.484;2023-07-09T02:00:40;23.50;96.30
19220;DHT22;9744;49.364;7.484;2023-07-09T02:03:07;23.50;96.40
19220;DHT22;9744;49.364;7.484;2023-07-09T02:05:36;23.50;96.60
19220;DHT22;9744;49.364;7.484;2023-07-09T02:08:04;23.40;96.60
19220;DHT22;9744;49.364;7.484;2023-07-09T02:10:31;23.40;96.70
19220;DHT22;9744;49.364;7.484;2023-07-09T02:13:00;23.40;96.70
19220;DHT22;9744;49.364;7.484;2023-07-09T02:15:28;23.40;96.60
19220;DHT22;9744;49.364;7.484;2023-07-09T02:17:56;23.40;96.70
19220;DHT22;9744;49.364;7.484;2023-07-09T02:20:25;23.40;96.80
19220;DHT22;9744;49.364;7.484;2023-07-09T02:22:54;23.40;96.90
19220;DHT22;9744;49.364;7.484;2023-07-09T02:25:23;23.30;97.00
19220;DHT22;9744;49.364;7.484;2023-07-09T02:27:51;23.30;97.10
19220;DHT22;9744;49.364;7.484;2023-07-09T02:30:20;23.20;97.10
19220;DHT22;9744;49.364;7.484;2023-07-09T02:32:49;23.20;97.30
19220;DHT22;9744;49.364;7.484;2023-07-09T02:35:16;23.20;97.40
19220;DHT22;9744;49.364;7.484;2023-07-09T02:37:44;23.10;97.40
19220;DHT22;9744;49.364;7.484;2023-07-09T02:40:12;23.10;97.40
19220;DHT22;9744;49.364;7.484;2023-07-09T02:42:40;23.10;97.40
19220;DHT22;9744;49.364;7.484;2023-07-09T02:45:09;23.10;97.40
19220;DHT22;9744;49.364;7.484;2023-07-09T02:47:39;23.20;97.30
19220;DHT22;9744;49.364;7.484;2023-07-09T02:50:09;23.30;97.00
19220;DHT22;9744;49.364;7.484;2023-07-09T02:52:37;23.40;97.00
19220;DHT22;9744;49.364;7.484;2023-07-09T02:55:05;23.40;96.90
19220;DHT22;9744;49.364;7.484;2023-07-09T02:57:33;23.50;96.70
19220;DHT22;9744;49.364;7.484;2023-07-09T03:00:00;23.50;97.00
19220;DHT22;9744;49.364;7.484;2023-07-09T03:02:35;23.30;97.10
19220;DHT22;9744;49.364;7.484;2023-07-09T03:05:04;23.20;97.30
19220;DHT22;9744;49.364;7.484;2023-07-09T03:07:32;23.10;97.40
19220;DHT22;9744;49.364;7.484;2023-07-09T03:09:59;23.00;97.50
19220;DHT22;9744;49.364;7.484;2023-07-09T03:12:27;23.00;97.50
19220;DHT22;9744;49.364;7.484;2023-07-09T03:14:54;23.00;97.60
19220;DHT22;9744;49.364;7.484;2023-07-09T03:17:21;23.10;97.50
19220;DHT22;9744;49.364;7.484;2023-07-09T03:19:49;23.10;97.50
19220;DHT22;9744;49.364;7.484;2023-07-09T03:22:17;23.20;97.50
19220;DHT22;9744;49.364;7.484;2023-07-09T03:24:45;23.20;97.30
19220;DHT22;9744;49.364;7.484;2023-07-09T03:27:12;23.20;97.40
19220;DHT22;9744;49.364;7.484;2023-07-09T03:29:39;23.30;97.30
19220;DHT22;9744;49.364;7.484;2023-07-09T03:32:07;23.30;97.30
19220;DHT22;9744;49.364;7.484;2023-07-09T03:34:35;23.30;97.40
19220;DHT22;9744;49.364;7.484;2023-07-09T03:37:02;23.20;97.60
19220;DHT22;9744;49.364;7.484;2023-07-09T03:39:31;23.20;97.80
19220;DHT22;9744;49.364;7.484;2023-07-09T03:41:58;23.10;98.10
19220;DHT22;9744;49.364;7.484;2023-07-09T03:44:25;23.00;98.10
19220;DHT22;9744;49.364;7.484;2023-07-09T03:46:53;23.00;98.40
19220;DHT22;9744;49.364;7.484;2023-07-09T03:49:20;22.90;98.60
19220;DHT22;9744;49.364;7.484;2023-07-09T03:51:48;22.90;98.80
19220;DHT22;9744;49.364;7.484;2023-07-09T03:54:15;22.90;98.80
19220;DHT22;9744;49.364;7.484;2023-07-09T03:56:44;22.80;99.00
19220;DHT22;9744;49.364;7.484;2023-07-09T03:59:11;22.80;99.00
19220;DHT22;9744;49.364;7.484;2023-07-09T04:01:38;22.80;99.20
19220;DHT22;9744;49.364;7.484;2023-07-09T04:04:12;22.80;99.20
19220;DHT22;9744;49.364;7.484;2023-07-09T04:06:39;22.70;99.40
19220;DHT22;9744;49.364;7.484;2023-07-09T04:09:06;22.80;99.40
19220;DHT22;9744;49.364;7.484;2023-07-09T04:11:34;22.70;99.60
19220;DHT22;9744;49.364;7.484;2023-07-09T04:14:02;22.80;99.60
19220;DHT22;9744;49.364;7.484;2023-07-09T04:16:30;22.80;99.60
19220;DHT22;9744;49.364;7.484;2023-07-09T04:18:58;22.80;99.50
19220;DHT22;9744;49.364;7.484;2023-07-09T04:21:25;22.90;99.50
19220;DHT22;9744;49.364;7.484;2023-07-09T04:24:01;22.90;99.40
19220;DHT22;9744;49.364;7.484;2023-07-09T04:26:28;22.90;99.50
19220;DHT22;9744;49.364;7.484;2023-07-09T04:28:55;22.90;99.30
19220;DHT22;9744;49.364;7.484;2023-07-09T04:31:24;22.90;99.30
19220;DHT22;9744;49.364;7.484;2023-07-09T04:33:52;23.00;99.70
19220;DHT22;9744;49.364;7.484;2023-07-09T04:36:19;23.00;99.30
19220;DHT22;9744;49.364;7.484;2023-07-09T04:38:46;23.00;99.30
19220;DHT22;9744;49.364;7.484;2023-07-09T04:41:14;23.20;99.20
19220;DHT22;9744;49.364;7.484;2023-07-09T04:43:41;23.20;99.20
19220;DHT22;9744;49.364;7.484;2023-07-09T04:46:10;23.30;98.90
19220;DHT22;9744;49.364;7.484;2023-07-09T04:48:38;23.30;98.90
19220;DHT22;9744;49.364;7.484;2023-07-09T04:51:06;23.40;98.80
19220;DHT22;9744;49.364;7.484;2023-07-09T04:53:33;23.40;98.70
19220;DHT22;9744;49.364;7.484;2023-07-09T04:56:00;23.50;98.60
19220;DHT22;9744;49.364;7.484;2023-07-09T04:58:28;23.80;97.90
19220;DHT22;9744;49.364;7.484;2023-07-09T05:00:57;24.00;97.90
19220;DHT22;9744;49.364;7.484;2023-07-09T05:03:24;24.10;97.80
19220;DHT22;9744;49.364;7.484;2023-07-09T05:05:53;24.20;97.90
19220;DHT22;9744;49.364;7.484;2023-07-09T05:08:21;24.00;97.60
19220;DHT22;9744;49.364;7.484;2023-07-09T05:10:51;23.90;97.80
19220;DHT22;9744;49.364;7.484;2023-07-09T05:13:19;23.70;98.10
19220;DHT22;9744;49.364;7.484;2023-07-09T05:15:47;23.60;98.30
19220;DHT22;9744;49.364;7.484;2023-07-09T05:18:15;23.60;98.50
19220;DHT22;9744;49.364;7.484;2023-07-09T05:20:42;23.60;98.60
19220;DHT22;9744;49.364;7.484;2023-07-09T05:23:11;23.60;98.70
19220;DHT22;9744;49.364;7.484;2023-07-09T05:25:38;23.60;98.80
19220;DHT22;9744;49.364;7.484;2023-07-09T05:28:06;23.60;98.80
19220;DHT22;9744;49.364;7.484;2023-07-09T05:30:33;23.70;98.80
19220;DHT22;9744;49.364;7.484;2023-07-09T05:33:01;23.70;98.80
19220;DHT22;9744;49.364;7.484;2023-07-09T05:35:28;23.70;98.90
19220;DHT22;9744;49.364;7.484;2023-07-09T05:37:55;23.70;98.90
19220;DHT22;9744;49.364;7.484;2023-07-09T05:40:24;23.80;99.00
19220;DHT22;9744;49.364;7.484;2023-07-09T05:42:51;23.90;99.20
19220;DHT22;9744;49.364;7.484;2023-07-09T05:45:18;24.00;99.00
19220;DHT22;9744;49.364;7.484;2023-07-09T05:47:46;24.20;99.20
19220;DHT22;9744;49.364;7.484;2023-07-09T05:50:13;24.50;99.10
19220;DHT22;9744;49.364;7.484;2023-07-09T05:52:41;24.80;99.00
19220;DHT22;9744;49.364;7.484;2023-07-09T05:55:08;24.80;99.10
19220;DHT22;9744;49.364;7.484;2023-07-09T05:57:38;25.00;99.10
19220;DHT22;9744;49.364;7.484;2023-07-09T06:00:06;25.30;98.90
19220;DHT22;9744;49.364;7.484;2023-07-09T06:02:40;25.20;98.80
19220;DHT22;9744;49.364;7.484;2023-07-09T06:05:08;25.40;99.10
19220;DHT22;9744;49.364;7.484;2023-07-09T06:07:37;25.60;99.00
19220;DHT22;9744;49.364;7.484;2023-07-09T06:10:05;25.80;98.90
19220;DHT22;9744;49.364;7.484;2023-07-09T06:12:33;25.90;98.30
19220;DHT22;9744;49.364;7.484;2023-07-09T06:15:02;26.00;98.50
19220;DHT22;9744;49.364;7.484;2023-07-09T06:17:33;26.20;97.90
19220;DHT22;9744;49.364;7.484;2023-07-09T06:20:04;26.20;97.70
19220;DHT22;9744;49.364;7.484;2023-07-09T06:22:32;26.20;97.70
19220;DHT22;9744;49.364;7.484;2023-07-09T06:24:59;26.10;98.00
19220;DHT22;9744;49.364;7.484;2023-07-09T06:27:26;26.30;98.00
19220;DHT22;9744;49.364;7.484;2023-07-09T06:29:54;26.50;98.10
19220;DHT22;9744;49.364;7.484;2023-07-09T06:32:22;26.80;97.80
19220;DHT22;9744;49.364;7.484;2023-07-09T06:34:50;27.00;97.70
19220;DHT22;9744;49.364;7.484;2023-07-09T06:37:17;27.20;97.60
19220;DHT22;9744;49.364;7.484;2023-07-09T06:39:44;27.30;97.60
19220;DHT22;9744;49.364;7.484;2023-07-09T06:42:12;27.60;97.30
19220;DHT22;9744;49.364;7.484;2023-07-09T06:45:03;27.90;96.90
19220;DHT22;9744;49.364;7.484;2023-07-09T06:47:32;27.30;97.10
19220;DHT22;9744;49.364;7.484;2023-07-09T06:49:59;27.30;97.50
19220;DHT22;9744;49.364;7.484;2023-07-09T06:52:26;27.50;97.70
19220;DHT22;9744;49.364;7.484;2023-07-09T06:54:53;28.20;97.20
19220;DHT22;9744;49.364;7.484;2023-07-09T06:57:21;28.80;96.80
19220;DHT22;9744;49.364;7.484;2023-07-09T06:59:48;29.70;96.10
19220;DHT22;9744;49.364;7.484;2023-07-09T07:02:16;30.20;95.30
19220;DHT22;9744;49.364;7.484;2023-07-09T07:04:44;30.40;95.30
19220;DHT22;9744;49.364;7.484;2023-07-09T07:07:12;30.70;95.00
19220;DHT22;9744;49.364;7.484;2023-07-09T07:09:39;30.90;94.20
19220;DHT22;9744;49.364;7.484;2023-07-09T07:12:07;31.20;94.40
19220;DHT22;9744;49.364;7.484;2023-07-09T07:14:35;31.40;93.90
19220;DHT22;9744;49.364;7.484;2023-07-09T07:17:02;31.20;94.00
19220;DHT22;9744;49.364;7.484;2023-07-09T07:19:29;31.20;93.70
19220;DHT22;9744;49.364;7.484;2023-07-09T07:21:58;31.50;94.00
19220;DHT22;9744;49.364;7.484;2023-07-09T07:24:26;31.40;92.80
19220;DHT22;9744;49.364;7.484;2023-07-09T07:26:53;31.00;92.80
19220;DHT22;9744;49.364;7.484;2023-07-09T07:29:21;30.80;92.90
19220;DHT22;9744;49.364;7.484;2023-07-09T07:31:48;30.90;93.40
19220;DHT22;9744;49.364;7.484;2023-07-09T07:34:15;31.30;93.80
19220;DHT22;9744;49.364;7.484;2023-07-09T07:36:42;31.50;93.60
19220;DHT22;9744;49.364;7.484;2023-07-09T07:39:12;31.50;93.60
19220;DHT22;9744;49.364;7.484;2023-07-09T07:41:42;31.40;92.40
19220;DHT22;9744;49.364;7.484;2023-07-09T07:44:11;30.80;92.90
19220;DHT22;9744;49.364;7.484;2023-07-09T07:46:41;30.90;93.60
19220;DHT22;9744;49.364;7.484;2023-07-09T07:49:08;31.30;91.80
19220;DHT22;9744;49.364;7.484;2023-07-09T07:51:36;31.60;93.10
19220;DHT22;9744;49.364;7.484;2023-07-09T07:54:04;32.00;92.00
19220;DHT22;9744;49.364;7.484;2023-07-09T07:56:33;32.60;92.80
19220;DHT22;9744;49.364;7.484;2023-07-09T07:59:00;33.30;92.10
19220;DHT22;9744;49.364;7.484;2023-07-09T08:01:28;33.90;91.40
19220;DHT22;9744;49.364;7.484;2023-07-09T08:03:55;34.60;91.00
19220;DHT22;9744;49.364;7.484;2023-07-09T08:06:23;35.30;90.70
19220;DHT22;9744;49.364;7.484;2023-07-09T08:08:50;35.80;88.60
19220;DHT22;9744;49.364;7.484;2023-07-09T08:11:17;35.90;88.20
19220;DHT22;9744;49.364;7.484;2023-07-09T08:13:46;36.30;87.00
19220;DHT22;9744;49.364;7.484;2023-07-09T08:16:13;36.50;86.50
19220;DHT22;9744;49.364;7.484;2023-07-09T08:18:42;36.70;86.50
19220;DHT22;9744;49.364;7.484;2023-07-09T08:21:09;36.50;87.10
19220;DHT22;9744;49.364;7.484;2023-07-09T08:23:36;36.60;86.40
19220;DHT22;9744;49.364;7.484;2023-07-09T08:26:04;36.70;88.10
19220;DHT22;9744;49.364;7.484;2023-07-09T08:28:33;36.90;86.20
19220;DHT22;9744;49.364;7.484;2023-07-09T08:31:02;37.20;85.20
19220;DHT22;9744;49.364;7.484;2023-07-09T08:33:30;36.80;85.50
19220;DHT22;9744;49.364;7.484;2023-07-09T08:35:57;37.20;84.60
19220;DHT22;9744;49.364;7.484;2023-07-09T08:38:25;37.70;83.80
19220;DHT22;9744;49.364;7.484;2023-07-09T08:40:57;38.10;80.20
19220;DHT22;9744;49.364;7.484;2023-07-09T08:43:35;38.10;82.50
19220;DHT22;9744;49.364;7.484;2023-07-09T08:46:15;38.10;82.40
19220;DHT22;9744;49.364;7.484;2023-07-09T08:48:46;38.30;81.20
19220;DHT22;9744;49.364;7.484;2023-07-09T08:51:19;38.70;81.40
19220;DHT22;9744;49.364;7.484;2023-07-09T08:53:51;39.20;79.50
19220;DHT22;9744;49.364;7.484;2023-07-09T08:56:21;39.60;79.80
19220;DHT22;9744;49.364;7.484;2023-07-09T08:58:50;39.70;76.30
19220;DHT22;9744;49.364;7.484;2023-07-09T09:01:23;39.40;76.50
19220;DHT22;9744;49.364;7.484;2023-07-09T09:03:53;39.40;78.30
19220;DHT22;9744;49.364;7.484;2023-07-09T09:06:26;39.70;78.00
19220;DHT22;9744;49.364;7.484;2023-07-09T09:09:04;39.80;77.00
19220;DHT22;9744;49.364;7.484;2023-07-09T09:11:43;39.60;74.50
19220;DHT22;9744;49.364;7.484;2023-07-09T09:14:24;38.20;79.60
19220;DHT22;9744;49.364;7.484;2023-07-09T09:16:55;38.60;75.80
19220;DHT22;9744;49.364;7.484;2023-07-09T09:19:27;38.20;77.90
19220;DHT22;9744;49.364;7.484;2023-07-09T09:21:58;38.00;76.80
19220;DHT22;9744;49.364;7.484;2023-07-09T09:24:33;37.60;78.70
19220;DHT22;9744;49.364;7.484;2023-07-09T09:27:02;38.00;77.80
19220;DHT22;9744;49.364;7.484;2023-07-09T09:29:29;38.20;75.60
19220;DHT22;9744;49.364;7.484;2023-07-09T09:32:02;38.40;76.00
19220;DHT22;9744;49.364;7.484;2023-07-09T09:34:35;38.60;75.50
19220;DHT22;9744;49.364;7.484;2023-07-09T09:37:10;38.10;73.90
19220;DHT22;9744;49.364;7.484;2023-07-09T09:39:38;37.00;74.90
19220;DHT22;9744;49.364;7.484;2023-07-09T09:42:11;36.60;78.10
19220;DHT22;9744;49.364;7.484;2023-07-09T09:44:43;36.70;79.90
19220;DHT22;9744;49.364;7.484;2023-07-09T09:47:12;37.80;78.00
19220;DHT22;9744;49.364;7.484;2023-07-09T09:49:40;39.10;74.60
19220;DHT22;9744;49.364;7.484;2023-07-09T09:52:12;39.90;74.20
19220;DHT22;9744;49.364;7.484;2023-07-09T09:54:41;40.30;73.80
19220;DHT22;9744;49.364;7.484;2023-07-09T09:57:16;40.60;71.50
19220;DHT22;9744;49.364;7.484;2023-07-09T09:59:45;38.90;72.80
19220;DHT22;9744;49.364;7.484;2023-07-09T10:02:17;39.20;74.90
19220;DHT22;9744;49.364;7.484;2023-07-09T10:04:45;40.00;72.50
19220;DHT22;9744;49.364;7.484;2023-07-09T10:07:21;40.00;70.30
19220;DHT22;9744;49.364;7.484;2023-07-09T10:09:51;39.60;70.90
19220;DHT22;9744;49.364;7.484;2023-07-09T10:12:32;39.70;73.00
19220;DHT22;9744;49.364;7.484;2023-07-09T10:15:11;39.10;70.60
19220;DHT22;9744;49.364;7.484;2023-07-09T10:17:47;39.90;72.50
19220;DHT22;9744;49.364;7.484;2023-07-09T10:20:23;40.80;71.40
19220;DHT22;9744;49.364;7.484;2023-07-09T10:22:55;41.10;71.00
19220;DHT22;9744;49.364;7.484;2023-07-09T10:25:31;41.50;69.60
19220;DHT22;9744;49.364;7.484;2023-07-09T10:28:18;41.50;67.70
19220;DHT22;9744;49.364;7.484;2023-07-09T10:30:54;41.70;67.00
19220;DHT22;9744;49.364;7.484;2023-07-09T10:33:34;40.70;67.90
19220;DHT22;9744;49.364;7.484;2023-07-09T10:36:16;40.80;69.20
19220;DHT22;9744;49.364;7.484;2023-07-09T10:38:52;41.70;67.40
19220;DHT22;9744;49.364;7.484;2023-07-09T10:41:22;41.80;66.00
19220;DHT22;9744;49.364;7.484;2023-07-09T10:43:56;41.90;66.60
19220;DHT22;9744;49.364;7.484;2023-07-09T10:46:26;42.00;64.90
19220;DHT22;9744;49.364;7.484;2023-07-09T10:48:56;42.10;66.20
19220;DHT22;9744;49.364;7.484;2023-07-09T10:51:27;42.60;66.70
19220;DHT22;9744;49.364;7.484;2023-07-09T10:53:57;42.90;64.70
19220;DHT22;9744;49.364;7.484;2023-07-09T10:56:27;42.90;62.70
19220;DHT22;9744;49.364;7.484;2023-07-09T10:59:03;42.30;64.40
19220;DHT22;9744;49.364;7.484;2023-07-09T11:01:38;42.30;63.00
19220;DHT22;9744;49.364;7.484;2023-07-09T11:04:13;41.80;61.60
19220;DHT22;9744;49.364;7.484;2023-07-09T11:06:46;41.50;61.90
19220;DHT22;9744;49.364;7.484;2023-07-09T11:09:25;41.20;62.10
19220;DHT22;9744;49.364;7.484;2023-07-09T11:11:57;40.40;63.30
19220;DHT22;9744;49.364;7.484;2023-07-09T11:14:30;40.40;65.00
19220;DHT22;9744;49.364;7.484;2023-07-09T11:17:00;41.20;63.60
19220;DHT22;9744;49.364;7.484;2023-07-09T11:19:29;40.90;61.70
19220;DHT22;9744;49.364;7.484;2023-07-09T11:22:05;41.20;64.30
19220;DHT22;9744;49.364;7.484;2023-07-09T11:24:43;42.30;64.00
19220;DHT22;9744;49.364;7.484;2023-07-09T11:27:18;43.00;62.30
19220;DHT22;9744;49.364;7.484;2023-07-09T11:29:46;43.30;63.30
19220;DHT22;9744;49.364;7.484;2023-07-09T11:32:19;43.80;63.10
19220;DHT22;9744;49.364;7.484;2023-07-09T11:34:49;44.10;62.20
19220;DHT22;9744;49.364;7.484;2023-07-09T11:37:17;44.30;61.70
19220;DHT22;9744;49.364;7.484;2023-07-09T11:39:47;44.30;60.70
19220;DHT22;9744;49.364;7.484;2023-07-09T11:42:46;44.30;60.40
19220;DHT22;9744;49.364;7.484;2023-07-09T11:45:17;43.70;60.60
19220;DHT22;9744;49.364;7.484;2023-07-09T11:47:51;42.20;61.90
19220;DHT22;9744;49.364;7.484;2023-07-09T11:50:24;41.70;62.70
19220;DHT22;9744;49.364;7.484;2023-07-09T11:52:54;41.80;63.20
19220;DHT22;9744;49.364;7.484;2023-07-09T11:55:27;42.20;63.00
19220;DHT22;9744;49.364;7.484;2023-07-09T11:57:56;42.60;62.10
19220;DHT22;9744;49.364;7.484;2023-07-09T12:00:24;42.90;62.00
19220;DHT22;9744;49.364;7.484;2023-07-09T12:02:54;42.60;60.90
19220;DHT22;9744;49.364;7.484;2023-07-09T12:05:28;41.60;61.70
19220;DHT22;9744;49.364;7.484;2023-07-09T12:07:57;41.20;63.00
19220;DHT22;9744;49.364;7.484;2023-07-09T12:10:27;41.20;62.50
19220;DHT22;9744;49.364;7.484;2023-07-09T12:12:57;41.20;63.00
19220;DHT22;9744;49.364;7.484;2023-07-09T12:15:26;41.20;62.80
19220;DHT22;9744;49.364;7.484;2023-07-09T12:17:56;40.80;63.50
19220;DHT22;9744;49.364;7.484;2023-07-09T12:20:30;40.30;64.20
19220;DHT22;9744;49.364;7.484;2023-07-09T12:22:58;40.70;63.10
19220;DHT22;9744;49.364;7.484;2023-07-09T12:25:27;40.90;64.00
19220;DHT22;9744;49.364;7.484;2023-07-09T12:27:55;40.70;64.60
19220;DHT22;9744;49.364;7.484;2023-07-09T12:30:24;40.90;65.40
19220;DHT22;9744;49.364;7.484;2023-07-09T12:32:51;41.30;64.20
19220;DHT22;9744;49.364;7.484;2023-07-09T12:35:19;41.30;63.50
19220;DHT22;9744;49.364;7.484;2023-07-09T12:37:50;41.30;62.70
19220;DHT22;9744;49.364;7.484;2023-07-09T12:40:22;41.10;62.20
19220;DHT22;9744;49.364;7.484;2023-07-09T12:42:54;41.10;65.00
19220;DHT22;9744;49.364;7.484;2023-07-09T12:45:23;41.70;62.80
19220;DHT22;9744;49.364;7.484;2023-07-09T12:47:51;42.10;61.80
19220;DHT22;9744;49.364;7.484;2023-07-09T12:50:29;42.40;61.30
19220;DHT22;9744;49.364;7.484;2023-07-09T12:53:03;42.20;60.70
19220;DHT22;9744;49.364;7.484;2023-07-09T12:55:38;42.00;60.90
19220;DHT22;9744;49.364;7.484;2023-07-09T12:58:09;41.90;62.10
19220;DHT22;9744;49.364;7.484;2023-07-09T13:00:38;42.20;60.40
19220;DHT22;9744;49.364;7.484;2023-07-09T13:03:13;42.10;60.40
19220;DHT22;9744;49.364;7.484;2023-07-09T13:05:52;42.00;60.00
19220;DHT22;9744;49.364;7.484;2023-07-09T13:08:41;41.90;59.70
19220;DHT22;9744;49.364;7.484;2023-07-09T13:11:14;42.00;60.90
19220;DHT22;9744;49.364;7.484;2023-07-09T13:13:52;42.10;60.30
19220;DHT22;9744;49.364;7.484;2023-07-09T13:16:20;41.20;60.60
19220;DHT22;9744;49.364;7.484;2023-07-09T13:18:47;40.30;61.00
19220;DHT22;9744;49.364;7.484;2023-07-09T13:21:17;39.70;60.00
19220;DHT22;9744;49.364;7.484;2023-07-09T13:23:46;39.90;60.30
19220;DHT22;9744;49.364;7.484;2023-07-09T13:26:14;40.20;60.00
19220;DHT22;9744;49.364;7.484;2023-07-09T13:28:43;40.50;59.50
19220;DHT22;9744;49.364;7.484;2023-07-09T13:31:13;40.70;58.20
19220;DHT22;9744;49.364;7.484;2023-07-09T13:33:41;40.00;58.00
19220;DHT22;9744;49.364;7.484;2023-07-09T13:36:10;39.50;57.90
19220;DHT22;9744;49.364;7.484;2023-07-09T13:38:37;38.80;59.30
19220;DHT22;9744;49.364;7.484;2023-07-09T13:41:13;39.00;58.90
19220;DHT22;9744;49.364;7.484;2023-07-09T13:43:43;39.40;58.50
19220;DHT22;9744;49.364;7.484;2023-07-09T13:46:11;39.70;58.70
19220;DHT22;9744;49.364;7.484;2023-07-09T13:48:40;39.90;58.60
19220;DHT22;9744;49.364;7.484;2023-07-09T13:51:14;40.30;58.90
19220;DHT22;9744;49.364;7.484;2023-07-09T13:53:42;40.90;58.20
19220;DHT22;9744;49.364;7.484;2023-07-09T13:56:11;41.20;58.70
19220;DHT22;9744;49.364;7.484;2023-07-09T13:58:39;41.30;58.80
19220;DHT22;9744;49.364;7.484;2023-07-09T14:01:11;41.20;59.00
19220;DHT22;9744;49.364;7.484;2023-07-09T14:03:39;41.00;57.90
19220;DHT22;9744;49.364;7.484;2023-07-09T14:06:09;40.10;59.20
19220;DHT22;9744;49.364;7.484;2023-07-09T14:08:38;39.30;59.50
19220;DHT22;9744;49.364;7.484;2023-07-09T14:11:11;38.40;60.80
19220;DHT22;9744;49.364;7.484;2023-07-09T14:13:38;37.60;60.50
19220;DHT22;9744;49.364;7.484;2023-07-09T14:16:08;37.00;61.40
19220;DHT22;9744;49.364;7.484;2023-07-09T14:18:35;36.70;61.50
19220;DHT22;9744;49.364;7.484;2023-07-09T14:21:09;36.60;62.00
19220;DHT22;9744;49.364;7.484;2023-07-09T14:23:36;36.10;62.20
19220;DHT22;9744;49.364;7.484;2023-07-09T14:26:04;35.60;63.80
19220;DHT22;9744;49.364;7.484;2023-07-09T14:28:32;35.40;64.30
19220;DHT22;9744;49.364;7.484;2023-07-09T14:31:00;35.50;64.20
19220;DHT22;9744;49.364;7.484;2023-07-09T14:33:28;35.20;64.30
19220;DHT22;9744;49.364;7.484;2023-07-09T14:35:55;35.10;65.10
19220;DHT22;9744;49.364;7.484;2023-07-09T14:38:24;35.20;65.60
19220;DHT22;9744;49.364;7.484;2023-07-09T14:40:53;35.30;66.30
19220;DHT22;9744;49.364;7.484;2023-07-09T14:43:22;35.50;66.50
19220;DHT22;9744;49.364;7.484;2023-07-09T14:45:51;35.60;66.90
19220;DHT22;9744;49.364;7.484;2023-07-09T14:48:19;35.70;66.90
19220;DHT22;9744;49.364;7.484;2023-07-09T14:50:47;35.70;66.80
19220;DHT22;9744;49.364;7.484;2023-07-09T14:53:20;35.70;67.10
19220;DHT22;9744;49.364;7.484;2023-07-09T14:55:48;36.00;67.20
19220;DHT22;9744;49.364;7.484;2023-07-09T14:58:17;35.80;66.90
19220;DHT22;9744;49.364;7.484;2023-07-09T15:00:46;35.70;67.60
19220;DHT22;9744;49.364;7.484;2023-07-09T15:03:19;35.50;67.70
19220;DHT22;9744;49.364;7.484;2023-07-09T15:05:47;35.20;67.70
19220;DHT22;9744;49.364;7.484;2023-07-09T15:08:16;35.60;68.60
19220;DHT22;9744;49.364;7.484;2023-07-09T15:10:44;36.00;68.30
19220;DHT22;9744;49.364;7.484;2023-07-09T15:13:16;37.40;68.00
19220;DHT22;9744;49.364;7.484;2023-07-09T15:15:44;38.30;67.80
19220;DHT22;9744;49.364;7.484;2023-07-09T15:18:14;38.60;67.80
19220;DHT22;9744;49.364;7.484;2023-07-09T15:20:49;38.70;67.90
19220;DHT22;9744;49.364;7.484;2023-07-09T15:23:17;38.80;68.10
19220;DHT22;9744;49.364;7.484;2023-07-09T15:25:45;38.80;68.10
19220;DHT22;9744;49.364;7.484;2023-07-09T15:28:12;38.80;68.50
19220;DHT22;9744;49.364;7.484;2023-07-09T15:30:40;38.70;68.40
19220;DHT22;9744;49.364;7.484;2023-07-09T15:33:14;38.60;68.40
19220;DHT22;9744;49.364;7.484;2023-07-09T15:35:44;38.50;68.60
19220;DHT22;9744;49.364;7.484;2023-07-09T15:38:27;38.50;69.10
19220;DHT22;9744;49.364;7.484;2023-07-09T15:40:55;38.30;69.00
19220;DHT22;9744;49.364;7.484;2023-07-09T15:43:24;38.30;69.20
19220;DHT22;9744;49.364;7.484;2023-07-09T15:45:54;38.30;69.20
19220;DHT22;9744;49.364;7.484;2023-07-09T15:48:25;38.30;69.40
19220;DHT22;9744;49.364;7.484;2023-07-09T15:50:54;37.30;70.20
19220;DHT22;9744;49.364;7.484;2023-07-09T15:53:22;36.80;72.50
19220;DHT22;9744;49.364;7.484;2023-07-09T15:55:54;36.20;73.40
19220;DHT22;9744;49.364;7.484;2023-07-09T15:58:26;35.90;74.00
19220;DHT22;9744;49.364;7.484;2023-07-09T16:00:54;35.40;74.70